createdAt,value
2018-05-17T00:01:39.911Z,30.60
2018-05-17T00:04:06.868Z,28.70
2018-05-17T00:06:33.065Z,28.23
2018-05-17T00:09:00.026Z,25.03
2018-05-17T00:11:26.987Z,26.47
2018-05-17T00:13:53.271Z,27.00
2018-05-17T00:16:19.488Z,26.80
2018-05-17T00:18:45.766Z,25.07
2018-05-17T00:21:12.695Z,24.80
2018-05-17T00:23:39.654Z,24.90
2018-05-17T00:26:06.595Z,23.87
2018-05-17T00:28:33.556Z,23.70
2018-05-17T00:30:59.747Z,23.27
2018-05-17T00:33:25.972Z,22.73
2018-05-17T00:35:52.178Z,22.40
2018-05-17T00:38:18.400Z,22.33
2018-05-17T00:40:44.655Z,22.10
2018-05-17T00:43:10.876Z,22.40
2018-05-17T00:45:37.136Z,20.97
2018-05-17T00:48:04.095Z,21.23
2018-05-17T00:50:31.032Z,20.53
2018-05-17T00:53:10.295Z,21.20
2018-05-17T00:55:37.362Z,20.37
2018-05-17T00:58:03.571Z,19.27
2018-05-17T01:00:29.779Z,22.07
2018-05-17T01:02:57.300Z,19.03
2018-05-17T01:05:23.731Z,18.17
2018-05-17T01:07:50.678Z,19.27
2018-05-17T01:10:17.667Z,18.43
2018-05-17T01:12:44.686Z,18.17
2018-05-17T01:15:10.884Z,18.30
2018-05-17T01:17:37.542Z,17.43
2018-05-17T01:20:03.864Z,15.77
2018-05-17T01:22:30.818Z,15.83
2018-05-17T01:24:57.021Z,17.47
2018-05-17T01:27:23.276Z,15.90
2018-05-17T01:29:49.495Z,16.90
2018-05-17T01:32:15.687Z,17.33
2018-05-17T01:34:41.908Z,15.40
2018-05-17T01:37:21.067Z,15.40
2018-05-17T01:39:47.283Z,16.30
2018-05-17T01:42:13.574Z,17.17
2018-05-17T01:44:40.456Z,15.10
2018-05-17T01:47:06.650Z,14.30
2018-05-17T01:49:32.871Z,15.47
2018-05-17T01:51:59.063Z,15.90
2018-05-17T01:54:25.275Z,15.90
2018-05-17T01:56:51.490Z,16.07
2018-05-17T01:59:17.702Z,15.20
2018-05-17T02:01:44.634Z,14.80
2018-05-17T02:04:10.895Z,15.87
2018-05-17T02:06:37.090Z,16.40
2018-05-17T02:09:03.370Z,16.73
2018-05-17T02:11:29.555Z,16.33
2018-05-17T02:13:55.766Z,16.77
2018-05-17T02:16:21.950Z,15.53
2018-05-17T02:18:48.182Z,18.47
2018-05-17T02:21:14.371Z,17.03
2018-05-17T02:23:40.558Z,16.27
2018-05-17T02:26:06.779Z,16.80
2018-05-17T02:28:32.977Z,15.37
2018-05-17T02:30:59.931Z,15.70
2018-05-17T02:33:26.123Z,16.30
2018-05-17T02:35:52.335Z,15.60
2018-05-17T02:38:18.605Z,14.87
2018-05-17T02:40:44.835Z,15.50
2018-05-17T02:43:11.771Z,16.50
2018-05-17T02:45:38.728Z,17.20
2018-05-17T02:48:05.663Z,15.20
2018-05-17T02:50:32.615Z,15.73
2018-05-17T02:52:58.835Z,16.37
2018-05-17T02:55:25.799Z,15.57
2018-05-17T02:57:52.754Z,14.20
2018-05-17T03:00:18.971Z,15.50
2018-05-17T03:02:45.934Z,16.67
2018-05-17T03:05:12.151Z,14.90
2018-05-17T03:07:38.344Z,14.90
2018-05-17T03:10:04.559Z,15.23
2018-05-17T03:12:30.763Z,16.00
2018-05-17T03:14:56.986Z,15.30
2018-05-17T03:17:23.174Z,14.30
2018-05-17T03:19:50.135Z,15.87
2018-05-17T03:22:17.095Z,15.27
2018-05-17T03:24:43.287Z,14.70
2018-05-17T03:27:09.507Z,15.47
2018-05-17T03:29:35.781Z,15.13
2018-05-17T03:32:01.940Z,16.77
2018-05-17T03:34:28.140Z,14.53
2018-05-17T03:36:54.358Z,12.93
2018-05-17T03:39:21.287Z,15.40
2018-05-17T03:41:48.238Z,14.30
2018-05-17T03:44:15.170Z,14.93
2018-05-17T03:46:41.391Z,16.77
2018-05-17T03:49:07.587Z,15.50
2018-05-17T03:51:33.807Z,14.50
2018-05-17T03:54:00.003Z,16.90
2018-05-17T03:56:26.979Z,14.83
2018-05-17T03:58:53.167Z,14.80
2018-05-17T04:01:32.611Z,14.20
2018-05-17T04:04:11.315Z,15.17
2018-05-17T04:06:41.575Z,14.83
2018-05-17T04:09:08.031Z,14.90
2018-05-17T04:11:34.242Z,14.97
2018-05-17T04:14:00.457Z,14.53
2018-05-17T04:16:27.423Z,15.97
2018-05-17T04:18:54.608Z,14.97
2018-05-17T04:21:20.851Z,13.93
2018-05-17T04:23:47.047Z,14.67
2018-05-17T04:26:13.239Z,14.03
2018-05-17T04:28:40.194Z,13.97
2018-05-17T04:31:06.411Z,14.13
2018-05-17T04:33:33.378Z,14.20
2018-05-17T04:35:59.574Z,13.60
2018-05-17T04:38:26.535Z,14.03
2018-05-17T04:40:53.462Z,13.73
2018-05-17T04:43:19.690Z,14.63
2018-05-17T04:45:46.635Z,12.40
2018-05-17T04:48:12.870Z,12.70
2018-05-17T04:50:39.807Z,12.87
2018-05-17T04:53:06.039Z,13.57
2018-05-17T04:55:32.252Z,13.97
2018-05-17T04:57:58.500Z,13.83
2018-05-17T05:00:25.435Z,14.07
2018-05-17T05:02:51.692Z,12.93
2018-05-17T05:05:18.687Z,12.47
2018-05-17T05:07:44.903Z,13.07
2018-05-17T05:10:11.102Z,13.77
2018-05-17T05:12:38.091Z,13.17
2018-05-17T05:15:04.282Z,15.00
2018-05-17T05:17:30.527Z,12.90
2018-05-17T05:19:56.718Z,13.40
2018-05-17T05:22:23.687Z,13.73
2018-05-17T05:24:49.879Z,14.87
2018-05-17T05:27:17.731Z,12.90
2018-05-17T05:29:43.923Z,14.33
2018-05-17T05:32:10.112Z,14.20
2018-05-17T05:34:37.090Z,13.20
2018-05-17T05:37:03.288Z,13.30
2018-05-17T05:39:29.506Z,14.30
2018-05-17T05:41:55.703Z,12.83
2018-05-17T05:44:21.923Z,14.83
2018-05-17T05:46:48.124Z,12.47
2018-05-17T05:49:14.714Z,13.33
2018-05-17T05:51:41.021Z,14.50
2018-05-17T05:54:07.293Z,14.93
2018-05-17T05:56:33.487Z,14.13
2018-05-17T05:58:59.819Z,13.60
2018-05-17T06:01:26.011Z,15.97
2018-05-17T06:03:52.270Z,13.70
2018-05-17T06:06:18.475Z,13.13
2018-05-17T06:08:44.698Z,13.87
2018-05-17T06:11:10.918Z,11.13
2018-05-17T06:13:37.887Z,13.97
2018-05-17T06:16:04.087Z,13.90
2018-05-17T06:18:31.063Z,13.03
2018-05-17T06:20:57.260Z,12.57
2018-05-17T06:23:24.223Z,12.07
2018-05-17T06:25:50.427Z,12.83
2018-05-17T06:28:17.403Z,11.30
2018-05-17T06:30:43.594Z,10.20
2018-05-17T06:33:10.544Z,11.83
2018-05-17T06:35:41.199Z,10.80
2018-05-17T06:38:08.201Z,12.20
2018-05-17T06:40:34.428Z,10.90
2018-05-17T06:43:00.627Z,11.07
2018-05-17T06:45:26.855Z,10.37
2018-05-17T06:47:53.056Z,10.57
2018-05-17T06:50:20.010Z,10.17
2018-05-17T06:52:46.239Z,12.33
2018-05-17T06:55:12.496Z,10.93
2018-05-17T06:57:38.701Z,11.80
2018-05-17T07:00:04.930Z,8.77
2018-05-17T07:02:31.130Z,11.20
2018-05-17T07:04:57.559Z,12.27
2018-05-17T07:07:23.782Z,12.13
2018-05-17T07:09:50.000Z,12.30
2018-05-17T07:12:16.223Z,11.00
2018-05-17T07:14:42.410Z,10.87
2018-05-17T07:17:08.627Z,11.30
2018-05-17T07:19:35.739Z,11.60
2018-05-17T07:22:01.931Z,11.60
2018-05-17T07:24:28.123Z,11.70
2018-05-17T07:26:55.099Z,11.23
2018-05-17T07:29:21.287Z,10.50
2018-05-17T07:31:47.507Z,11.17
2018-05-17T07:34:13.828Z,9.10
2018-05-17T07:36:40.215Z,11.10
2018-05-17T07:39:06.415Z,11.63
2018-05-17T07:41:33.377Z,11.37
2018-05-17T07:44:00.311Z,11.30
2018-05-17T07:46:27.275Z,10.10
2018-05-17T07:48:54.295Z,10.00
2018-05-17T07:51:21.263Z,10.40
2018-05-17T07:53:47.467Z,9.30
2018-05-17T07:56:13.691Z,8.97
2018-05-17T07:58:39.887Z,10.43
2018-05-17T08:01:06.154Z,8.90
2018-05-17T08:03:32.338Z,7.67
2018-05-17T08:05:58.699Z,9.00
2018-05-17T08:08:25.679Z,9.30
2018-05-17T08:10:52.639Z,9.07
2018-05-17T08:13:18.862Z,8.27
2018-05-17T08:15:45.799Z,9.10
2018-05-17T08:18:12.770Z,7.67
2018-05-17T08:20:38.976Z,7.87
2018-05-17T08:23:05.992Z,7.60
2018-05-17T08:25:32.499Z,8.53
2018-05-17T08:27:58.722Z,8.27
2018-05-17T08:30:24.914Z,9.20
2018-05-17T08:32:51.876Z,7.73
2018-05-17T08:35:18.114Z,7.40
2018-05-17T08:37:44.336Z,7.90
2018-05-17T08:40:10.538Z,7.27
2018-05-17T08:42:37.528Z,8.07
2018-05-17T08:45:03.739Z,7.40
2018-05-17T08:47:36.951Z,7.80
2018-05-17T08:50:03.144Z,6.83
2018-05-17T08:52:30.112Z,6.63
2018-05-17T08:54:56.371Z,6.80
2018-05-17T08:57:22.595Z,7.20
2018-05-17T08:59:48.818Z,7.70
2018-05-17T09:02:15.044Z,7.73
2018-05-17T09:04:41.244Z,7.20
2018-05-17T09:07:07.479Z,7.77
2018-05-17T09:09:33.675Z,7.37
2018-05-17T09:11:59.924Z,7.40
2018-05-17T09:14:26.865Z,6.30
2018-05-17T09:16:53.834Z,4.90
2018-05-17T09:19:20.043Z,7.80
2018-05-17T09:21:47.004Z,7.70
2018-05-17T09:24:13.199Z,7.30
2018-05-17T09:26:39.449Z,6.80
2018-05-17T09:29:06.441Z,6.53
2018-05-17T09:31:32.619Z,7.10
2018-05-17T09:33:59.583Z,6.30
2018-05-17T09:36:25.774Z,5.83
2018-05-17T09:38:51.991Z,6.47
2018-05-17T09:41:18.202Z,6.53
2018-05-17T09:43:45.406Z,6.60
2018-05-17T09:46:12.338Z,6.20
2018-05-17T09:48:39.645Z,6.77
2018-05-17T09:51:05.847Z,6.07
2018-05-17T09:53:32.066Z,5.73
2018-05-17T09:55:59.004Z,6.57
2018-05-17T09:58:26.051Z,6.30
2018-05-17T10:00:53.078Z,5.90
2018-05-17T10:03:19.750Z,5.93
2018-05-17T10:05:46.695Z,6.20
2018-05-17T10:08:13.654Z,5.03
2018-05-17T10:10:39.847Z,6.10
2018-05-17T10:13:06.980Z,6.23
2018-05-17T10:15:33.249Z,5.53
2018-05-17T10:17:59.398Z,6.07
2018-05-17T10:20:25.644Z,6.37
2018-05-17T10:22:51.843Z,6.27
2018-05-17T10:25:18.075Z,5.27
2018-05-17T10:27:44.268Z,5.40
2018-05-17T10:30:10.619Z,4.70
2018-05-17T10:32:37.558Z,5.20
2018-05-17T10:35:04.588Z,5.97
2018-05-17T10:37:30.782Z,4.63
2018-05-17T10:39:57.015Z,5.80
2018-05-17T10:42:23.211Z,5.47
2018-05-17T10:44:50.412Z,4.97
2018-05-17T10:47:16.619Z,5.50
2018-05-17T10:49:42.870Z,5.47
2018-05-17T10:52:09.072Z,4.50
2018-05-17T10:54:35.609Z,4.40
2018-05-17T10:57:02.536Z,5.30
2018-05-17T10:59:28.735Z,4.90
2018-05-17T11:01:55.698Z,4.97
2018-05-17T11:04:22.631Z,4.17
2018-05-17T11:06:49.596Z,4.70
2018-05-17T11:09:16.534Z,5.83
2018-05-17T11:11:43.519Z,6.10
2018-05-17T11:14:09.719Z,6.53
2018-05-17T11:16:35.943Z,5.50
2018-05-17T11:19:02.880Z,5.67
2018-05-17T11:21:29.850Z,6.37
2018-05-17T11:23:56.043Z,6.80
2018-05-17T11:26:22.262Z,5.73
2018-05-17T11:28:48.455Z,5.40
2018-05-17T11:31:14.687Z,4.97
2018-05-17T11:33:40.887Z,6.40
2018-05-17T11:36:07.115Z,6.07
2018-05-17T11:38:33.319Z,5.30
2018-05-17T11:41:00.299Z,5.50
2018-05-17T11:43:26.499Z,5.60
2018-05-17T11:45:53.611Z,4.87
2018-05-17T11:48:19.845Z,5.10
2018-05-17T11:50:46.058Z,5.53
2018-05-17T11:53:12.279Z,5.67
2018-05-17T11:55:38.479Z,6.33
2018-05-17T11:58:04.703Z,4.73
2018-05-17T12:00:31.707Z,5.87
2018-05-17T12:02:57.934Z,5.50
2018-05-17T12:05:24.131Z,5.10
2018-05-17T12:07:50.347Z,6.00
2018-05-17T12:10:16.551Z,5.60
2018-05-17T12:12:43.527Z,5.10
2018-05-17T12:15:09.727Z,6.23
2018-05-17T12:17:36.688Z,6.27
2018-05-17T12:20:03.628Z,6.10
2018-05-17T12:22:30.591Z,5.70
2018-05-17T12:24:56.779Z,4.67
2018-05-17T12:27:23.011Z,5.50
2018-05-17T12:29:49.206Z,4.97
2018-05-17T12:32:15.422Z,5.50
2018-05-17T12:34:41.615Z,5.57
2018-05-17T12:37:08.600Z,6.50
2018-05-17T12:39:34.806Z,6.63
2018-05-17T12:42:01.003Z,5.70
2018-05-17T12:44:27.219Z,5.93
2018-05-17T12:46:53.411Z,6.00
2018-05-17T12:49:19.631Z,7.20
2018-05-17T12:51:45.819Z,5.90
2018-05-17T12:54:12.103Z,6.67
2018-05-17T12:56:38.302Z,6.10
2018-05-17T12:59:04.521Z,6.27
2018-05-17T13:01:31.466Z,6.00
2018-05-17T13:03:58.434Z,5.90
2018-05-17T13:06:24.647Z,6.23
2018-05-17T13:08:51.602Z,6.73
2018-05-17T13:11:18.561Z,5.30
2018-05-17T13:13:44.792Z,6.80
2018-05-17T13:16:10.991Z,6.37
2018-05-17T13:18:37.956Z,7.77
2018-05-17T13:21:04.151Z,6.27
2018-05-17T13:23:30.379Z,6.93
2018-05-17T13:25:56.575Z,5.90
2018-05-17T13:28:22.823Z,8.03
2018-05-17T13:30:49.026Z,7.23
2018-05-17T13:33:15.224Z,5.93
2018-05-17T13:35:41.447Z,6.60
2018-05-17T13:38:08.387Z,7.70
2018-05-17T13:40:35.353Z,7.27
2018-05-17T13:43:01.543Z,6.70
2018-05-17T13:45:27.766Z,7.00
2018-05-17T13:47:53.974Z,7.07
2018-05-17T13:50:20.211Z,7.07
2018-05-17T13:52:46.411Z,7.33
2018-05-17T13:55:12.641Z,5.93
2018-05-17T13:57:38.840Z,7.43
2018-05-17T14:00:05.066Z,6.80
2018-05-17T14:02:32.098Z,6.47
2018-05-17T14:04:58.579Z,7.40
2018-05-17T14:07:24.797Z,7.87
2018-05-17T14:09:51.016Z,7.10
2018-05-17T14:12:17.252Z,7.50
2018-05-17T14:14:43.466Z,7.20
2018-05-17T14:17:10.403Z,7.00
2018-05-17T14:19:37.429Z,6.57
2018-05-17T14:22:04.389Z,6.33
2018-05-17T14:24:31.367Z,7.27
2018-05-17T14:26:57.558Z,7.60
2018-05-17T14:29:27.146Z,6.70
2018-05-17T14:31:53.395Z,7.40
2018-05-17T14:34:19.606Z,8.47
2018-05-17T14:36:45.867Z,7.13
2018-05-17T14:39:12.843Z,9.10
2018-05-17T14:41:39.043Z,8.37
2018-05-17T14:44:06.059Z,7.90
2018-05-17T14:46:33.084Z,8.20
2018-05-17T14:48:59.860Z,7.03
2018-05-17T14:51:27.783Z,6.93
2018-05-17T14:53:53.978Z,6.90
2018-05-17T14:56:20.983Z,8.20
2018-05-17T14:58:47.175Z,7.13
2018-05-17T15:01:13.385Z,6.93
2018-05-17T15:03:39.758Z,7.20
2018-05-17T15:06:06.043Z,7.93
2018-05-17T15:08:33.043Z,9.43
2018-05-17T15:10:59.441Z,6.60
2018-05-17T15:13:25.615Z,6.43
2018-05-17T15:15:51.810Z,7.27
2018-05-17T15:18:18.035Z,7.10
2018-05-17T15:20:44.231Z,7.23
2018-05-17T15:23:11.527Z,6.20
2018-05-17T15:25:37.726Z,7.03
2018-05-17T15:28:04.686Z,6.50
2018-05-17T15:30:30.887Z,6.53
2018-05-17T15:35:44.323Z,6.47
2018-05-17T15:38:10.555Z,6.60
2018-05-17T15:40:36.755Z,6.03
2018-05-17T15:43:02.980Z,6.73
2018-05-17T15:45:29.179Z,6.63
2018-05-17T15:47:55.412Z,6.33
2018-05-17T15:50:21.615Z,6.27
2018-05-17T15:52:48.582Z,7.00
2018-05-17T15:55:14.787Z,6.27
2018-05-17T15:57:41.759Z,6.67
2018-05-17T16:00:07.956Z,6.83
2018-05-17T16:02:34.918Z,6.97
2018-05-17T16:05:01.934Z,7.23
2018-05-17T16:07:28.160Z,7.20
2018-05-17T16:09:54.358Z,7.67
2018-05-17T16:12:20.582Z,5.47
2018-05-17T16:14:47.056Z,7.23
2018-05-17T16:17:13.050Z,6.77
2018-05-17T16:19:39.243Z,7.77
2018-05-17T16:22:05.464Z,6.70
2018-05-17T16:24:32.411Z,7.30
2018-05-17T16:26:59.367Z,7.83
2018-05-17T16:29:25.607Z,7.40
2018-05-17T16:31:52.295Z,7.07
2018-05-17T16:34:18.487Z,7.10
2018-05-17T16:36:55.787Z,7.53
2018-05-17T16:39:22.310Z,6.70
2018-05-17T16:41:48.547Z,6.60
2018-05-17T16:44:14.776Z,6.77
2018-05-17T16:46:40.971Z,6.60
2018-05-17T16:49:07.212Z,6.73
2018-05-17T16:51:33.406Z,7.90
2018-05-17T16:53:59.646Z,7.90
2018-05-17T16:56:26.797Z,6.43
2018-05-17T16:58:53.775Z,6.47
2018-05-17T17:01:20.071Z,7.27
2018-05-17T17:03:47.252Z,5.80
2018-05-17T17:06:13.438Z,6.57
2018-05-17T17:08:39.635Z,6.67
2018-05-17T17:11:05.859Z,6.10
2018-05-17T17:13:32.092Z,5.80
2018-05-17T17:15:58.715Z,5.80
2018-05-17T17:18:24.919Z,6.33
2018-05-17T17:20:53.685Z,7.93
2018-05-17T17:23:20.623Z,7.10
2018-05-17T17:25:47.634Z,7.40
2018-05-17T17:28:13.831Z,6.80
2018-05-17T17:30:40.060Z,7.27
2018-05-17T17:33:06.264Z,7.60
2018-05-17T17:35:32.482Z,7.70
2018-05-17T17:38:00.168Z,9.30
2018-05-17T17:40:33.115Z,7.53
2018-05-17T17:42:59.307Z,6.67
2018-05-17T17:45:25.556Z,7.60
2018-05-17T17:47:51.761Z,7.23
2018-05-17T17:50:18.271Z,7.80
2018-05-17T17:52:45.203Z,8.50
2018-05-17T17:55:12.487Z,6.60
2018-05-17T17:57:38.688Z,7.07
2018-05-17T18:00:05.676Z,6.60
2018-05-17T18:02:31.872Z,6.67
2018-05-17T18:04:58.863Z,6.93
2018-05-17T18:07:25.064Z,7.30
2018-05-17T18:09:58.365Z,7.30
2018-05-17T18:12:24.619Z,7.30
2018-05-17T18:14:50.970Z,6.83
2018-05-17T18:17:17.163Z,7.40
2018-05-17T18:19:43.358Z,7.43
2018-05-17T18:22:10.314Z,7.33
2018-05-17T18:24:37.286Z,7.13
2018-05-17T18:27:03.499Z,7.50
2018-05-17T18:29:30.435Z,6.87
2018-05-17T18:31:57.394Z,7.37
2018-05-17T18:34:23.590Z,6.53
2018-05-17T18:36:51.335Z,6.67
2018-05-17T18:39:17.548Z,7.13
2018-05-17T18:41:43.766Z,7.33
2018-05-17T18:44:10.786Z,7.30
2018-05-17T18:46:37.751Z,7.17
2018-05-17T18:49:03.993Z,7.10
2018-05-17T18:51:30.178Z,7.67
2018-05-17T18:53:57.147Z,7.33
2018-05-17T18:56:23.368Z,8.00
2018-05-17T18:58:49.567Z,7.47
2018-05-17T19:01:15.762Z,8.10
2018-05-17T19:03:41.978Z,7.50
2018-05-17T19:06:08.257Z,9.93
2018-05-17T19:08:34.505Z,8.20
2018-05-17T19:11:01.078Z,8.37
2018-05-17T19:13:27.303Z,8.50
2018-05-17T19:15:53.494Z,9.60
2018-05-17T19:18:20.453Z,8.47
2018-05-17T19:20:46.661Z,9.90
2018-05-17T19:23:13.631Z,9.77
2018-05-17T19:25:39.916Z,8.00
2018-05-17T19:28:06.095Z,8.30
2018-05-17T19:30:32.295Z,9.60
2018-05-17T19:32:59.254Z,9.50
2018-05-17T19:35:26.004Z,9.67
2018-05-17T19:37:52.284Z,8.93
2018-05-17T19:40:20.063Z,8.70
2018-05-17T19:42:47.206Z,8.73
2018-05-17T19:45:14.185Z,9.53
2018-05-17T19:47:40.426Z,9.63
2018-05-17T19:50:06.627Z,9.67
2018-05-17T19:52:33.597Z,8.23
2018-05-17T19:54:59.797Z,9.07
2018-05-17T19:57:26.151Z,8.83
2018-05-17T19:59:53.090Z,9.43
2018-05-17T20:02:20.119Z,9.07
2018-05-17T20:04:46.351Z,9.10
2018-05-17T20:07:12.586Z,9.60
2018-05-17T20:09:38.788Z,9.20
2018-05-17T20:12:05.126Z,9.63
2018-05-17T20:14:31.323Z,8.70
2018-05-17T20:16:57.516Z,8.70
2018-05-17T20:19:24.484Z,9.00
2018-05-17T20:21:50.935Z,9.13
2018-05-17T20:24:17.159Z,8.23
2018-05-17T20:26:43.349Z,9.33
2018-05-17T20:29:10.322Z,8.67
2018-05-17T20:31:36.506Z,10.43
2018-05-17T20:34:02.735Z,8.63
2018-05-17T20:36:28.923Z,9.00
2018-05-17T20:38:55.203Z,9.87
2018-05-17T20:41:21.407Z,9.17
2018-05-17T20:43:47.623Z,9.77
2018-05-17T20:46:13.813Z,9.60
2018-05-17T20:48:41.019Z,9.27
2018-05-17T20:51:07.206Z,8.97
2018-05-17T20:53:33.402Z,8.50
2018-05-17T20:56:00.598Z,8.80
2018-05-17T20:58:26.790Z,8.80
2018-05-17T21:00:53.746Z,9.30
2018-05-17T21:03:20.674Z,9.47
2018-05-17T21:05:47.671Z,9.20
2018-05-17T21:08:13.867Z,10.50
2018-05-17T21:10:40.831Z,10.67
2018-05-17T21:13:07.038Z,10.10
2018-05-17T21:15:33.997Z,11.10
2018-05-17T21:18:00.202Z,9.03
2018-05-17T21:20:27.171Z,10.90
2018-05-17T21:22:53.371Z,11.40
2018-05-17T21:25:19.603Z,9.53
2018-05-17T21:27:46.538Z,11.07
2018-05-17T21:30:12.763Z,10.77
2018-05-17T21:32:38.955Z,11.13
2018-05-17T21:35:05.175Z,10.30
2018-05-17T21:37:31.374Z,10.87
2018-05-17T21:39:58.351Z,9.63
2018-05-17T21:42:24.543Z,11.33
2018-05-17T21:44:51.521Z,10.30
2018-05-17T21:47:17.731Z,11.53
2018-05-17T21:49:44.695Z,11.17
2018-05-17T21:52:10.901Z,10.23
2018-05-17T21:54:37.119Z,11.00
2018-05-17T21:57:04.063Z,12.93
2018-05-17T21:59:31.179Z,12.30
2018-05-17T22:01:57.383Z,11.70
2018-05-17T22:04:23.604Z,12.27
2018-05-17T22:06:49.902Z,11.57
2018-05-17T22:09:16.047Z,12.97
2018-05-17T22:11:42.272Z,11.13
2018-05-17T22:14:09.212Z,13.70
2018-05-17T22:16:35.499Z,12.33
2018-05-17T22:19:01.694Z,14.57
2018-05-17T22:21:27.989Z,13.10
2018-05-17T22:23:54.931Z,12.37
2018-05-17T22:26:21.150Z,13.97
2018-05-17T22:28:48.115Z,13.00
2018-05-17T22:31:15.101Z,12.93
2018-05-17T22:33:41.295Z,13.90
2018-05-17T22:36:08.255Z,13.87
2018-05-17T22:38:34.443Z,12.87
2018-05-17T22:41:00.696Z,13.27
2018-05-17T22:43:27.639Z,14.07
2018-05-17T22:45:54.574Z,13.23
2018-05-17T22:48:20.795Z,13.40
2018-05-17T22:50:47.996Z,15.20
2018-05-17T22:53:14.206Z,13.97
2018-05-17T22:55:41.135Z,12.67
2018-05-17T22:58:20.335Z,12.57
2018-05-17T23:00:46.535Z,12.17
2018-05-17T23:03:12.751Z,12.50
2018-05-17T23:05:38.962Z,12.73
2018-05-17T23:08:05.919Z,11.83
2018-05-17T23:10:32.867Z,11.53
2018-05-17T23:12:59.851Z,11.20
2018-05-17T23:15:26.098Z,11.27
2018-05-17T23:17:52.308Z,11.87
2018-05-17T23:20:18.523Z,13.37
2018-05-17T23:22:44.722Z,11.17
2018-05-17T23:25:11.699Z,12.40
2018-05-17T23:27:37.910Z,12.30
2018-05-17T23:30:04.119Z,11.37
2018-05-17T23:32:31.051Z,13.27
2018-05-17T23:34:57.264Z,12.23
2018-05-17T23:37:24.086Z,13.07
2018-05-17T23:39:50.307Z,11.00
2018-05-17T23:42:16.494Z,13.03
2018-05-17T23:44:43.455Z,12.20
2018-05-17T23:47:09.651Z,11.57
2018-05-17T23:49:35.863Z,11.37
2018-05-17T23:52:02.076Z,11.10
2018-05-17T23:54:28.296Z,11.30
2018-05-17T23:56:54.478Z,10.37
2018-05-17T23:59:21.500Z,11.77
